sensor_id;sensor_type;location;lat;lon;timestamp;P1;durP1;ratioP1;P2;durP2;ratioP2
32501;SDS011;18952;52.516;13.460;2023-12-20T00:00:14;17.45;;;15.75;;
32501;SDS011;18952;52.516;13.460;2023-12-20T00:02:41;16.70;;;15.25;;
32501;SDS011;18952;52.516;13.460;2023-12-20T00:05:07;16.55;;;15.15;;
32501;SDS011;18952;52.516;13.460;2023-12-20T00:07:34;16.02;;;14.63;;
32501;SDS011;18952;52.516;13.460;2023-12-20T00:10:01;14.82;;;13.43;;
32501;SDS011;18952;52.516;13.460;2023-12-20T00:12:28;15.25;;;13.73;;
32501;SDS011;18952;52.516;13.460;2023-12-20T00:14:55;15.77;;;14.27;;
32501;SDS011;18952;52.516;13.460;2023-12-20T00:17:21;16.20;;;14.50;;
32501;SDS011;18952;52.516;13.460;2023-12-20T00:19:48;14.60;;;13.30;;
32501;SDS011;18952;52.516;13.460;2023-12-20T00:22:15;13.85;;;12.70;;
32501;SDS011;18952;52.516;13.460;2023-12-20T00:24:42;14.20;;;13.00;;
32501;SDS011;18952;52.516;13.460;2023-12-20T00:27:09;14.45;;;13.15;;
32501;SDS011;18952;52.516;13.460;2023-12-20T00:29:35;14.75;;;13.40;;
32501;SDS011;18952;52.516;13.460;2023-12-20T00:32:02;14.32;;;13.02;;
32501;SDS011;18952;52.516;13.460;2023-12-20T00:34:29;16.73;;;15.18;;
32501;SDS011;18952;52.516;13.460;2023-12-20T00:36:56;15.90;;;14.40;;
32501;SDS011;18952;52.516;13.460;2023-12-20T00:39:23;16.23;;;14.82;;
32501;SDS011;18952;52.516;13.460;2023-12-20T00:41:50;16.08;;;14.65;;
32501;SDS011;18952;52.516;13.460;2023-12-20T00:44:16;16.52;;;14.90;;
32501;SDS011;18952;52.516;13.460;2023-12-20T00:46:43;15.65;;;14.30;;
32501;SDS011;18952;52.516;13.460;2023-12-20T00:49:10;15.25;;;13.98;;
32501;SDS011;18952;52.516;13.460;2023-12-20T00:51:37;15.65;;;14.18;;
32501;SDS011;18952;52.516;13.460;2023-12-20T00:54:03;16.90;;;14.30;;
32501;SDS011;18952;52.516;13.460;2023-12-20T00:56:30;15.05;;;13.70;;
32501;SDS011;18952;52.516;13.460;2023-12-20T00:58:57;14.70;;;13.48;;
32501;SDS011;18952;52.516;13.460;2023-12-20T01:01:24;14.55;;;13.35;;
32501;SDS011;18952;52.516;13.460;2023-12-20T01:03:51;14.77;;;13.40;;
32501;SDS011;18952;52.516;13.460;2023-12-20T01:06:18;15.73;;;14.32;;
32501;SDS011;18952;52.516;13.460;2023-12-20T01:08:45;15.02;;;13.80;;
32501;SDS011;18952;52.516;13.460;2023-12-20T01:11:11;15.45;;;14.07;;
32501;SDS011;18952;52.516;13.460;2023-12-20T01:13:38;15.85;;;14.45;;
32501;SDS011;18952;52.516;13.460;2023-12-20T01:16:05;15.07;;;13.73;;
32501;SDS011;18952;52.516;13.460;2023-12-20T01:18:32;15.60;;;14.30;;
32501;SDS011;18952;52.516;13.460;2023-12-20T01:21:02;14.52;;;13.15;;
32501;SDS011;18952;52.516;13.460;2023-12-20T01:23:29;15.02;;;13.77;;
32501;SDS011;18952;52.516;13.460;2023-12-20T01:25:56;14.38;;;13.15;;
32501;SDS011;18952;52.516;13.460;2023-12-20T01:28:23;15.90;;;14.40;;
32501;SDS011;18952;52.516;13.460;2023-12-20T01:30:50;15.18;;;13.93;;
32501;SDS011;18952;52.516;13.460;2023-12-20T01:33:17;15.60;;;14.27;;
32501;SDS011;18952;52.516;13.460;2023-12-20T01:35:43;15.70;;;14.40;;
32501;SDS011;18952;52.516;13.460;2023-12-20T01:38:10;16.98;;;15.48;;
32501;SDS011;18952;52.516;13.460;2023-12-20T01:40:37;14.50;;;13.30;;
32501;SDS011;18952;52.516;13.460;2023-12-20T01:43:07;15.63;;;14.32;;
32501;SDS011;18952;52.516;13.460;2023-12-20T01:45:35;16.00;;;14.55;;
32501;SDS011;18952;52.516;13.460;2023-12-20T01:48:02;16.23;;;14.73;;
32501;SDS011;18952;52.516;13.460;2023-12-20T01:50:31;15.40;;;14.00;;
32501;SDS011;18952;52.516;13.460;2023-12-20T01:53:00;13.88;;;12.68;;
32501;SDS011;18952;52.516;13.460;2023-12-20T01:55:29;11.27;;;10.32;;
32501;SDS011;18952;52.516;13.460;2023-12-20T01:57:59;13.65;;;12.45;;
32501;SDS011;18952;52.516;13.460;2023-12-20T02:00:27;13.48;;;12.27;;
32501;SDS011;18952;52.516;13.460;2023-12-20T02:02:55;13.35;;;12.18;;
32501;SDS011;18952;52.516;13.460;2023-12-20T02:05:23;12.30;;;11.30;;
32501;SDS011;18952;52.516;13.460;2023-12-20T02:07:51;12.63;;;11.52;;
32501;SDS011;18952;52.516;13.460;2023-12-20T02:10:17;11.68;;;10.68;;
32501;SDS011;18952;52.516;13.460;2023-12-20T02:12:44;10.88;;;9.90;;
32501;SDS011;18952;52.516;13.460;2023-12-20T02:15:11;10.65;;;9.65;;
32501;SDS011;18952;52.516;13.460;2023-12-20T02:17:38;8.90;;;7.93;;
32501;SDS011;18952;52.516;13.460;2023-12-20T02:20:06;8.00;;;6.32;;
32501;SDS011;18952;52.516;13.460;2023-12-20T02:22:34;6.80;;;4.88;;
32501;SDS011;18952;52.516;13.460;2023-12-20T02:25:00;4.70;;;3.03;;
32501;SDS011;18952;52.516;13.460;2023-12-20T02:27:27;5.25;;;2.30;;
32501;SDS011;18952;52.516;13.460;2023-12-20T02:29:55;4.53;;;1.42;;
32501;SDS011;18952;52.516;13.460;2023-12-20T02:32:23;2.63;;;1.55;;
32501;SDS011;18952;52.516;13.460;2023-12-20T02:34:51;4.30;;;1.98;;
32501;SDS011;18952;52.516;13.460;2023-12-20T02:37:18;2.28;;;2.08;;
32501;SDS011;18952;52.516;13.460;2023-12-20T02:39:45;4.05;;;2.60;;
32501;SDS011;18952;52.516;13.460;2023-12-20T02:42:11;3.67;;;3.15;;
32501;SDS011;18952;52.516;13.460;2023-12-20T02:44:38;5.00;;;4.50;;
32501;SDS011;18952;52.516;13.460;2023-12-20T02:47:05;5.47;;;4.97;;
32501;SDS011;18952;52.516;13.460;2023-12-20T02:49:32;5.97;;;5.47;;
32501;SDS011;18952;52.516;13.460;2023-12-20T02:51:58;7.10;;;6.47;;
32501;SDS011;18952;52.516;13.460;2023-12-20T02:54:25;8.00;;;7.40;;
32501;SDS011;18952;52.516;13.460;2023-12-20T02:56:53;8.10;;;7.32;;
32501;SDS011;18952;52.516;13.460;2023-12-20T02:59:20;8.18;;;7.47;;
32501;SDS011;18952;52.516;13.460;2023-12-20T03:01:46;8.90;;;7.97;;
32501;SDS011;18952;52.516;13.460;2023-12-20T03:04:13;9.40;;;8.50;;
32501;SDS011;18952;52.516;13.460;2023-12-20T03:06:40;9.02;;;8.13;;
32501;SDS011;18952;52.516;13.460;2023-12-20T03:09:07;8.00;;;7.20;;
32501;SDS011;18952;52.516;13.460;2023-12-20T03:11:34;7.85;;;6.75;;
32501;SDS011;18952;52.516;13.460;2023-12-20T03:14:01;8.80;;;7.40;;
32501;SDS011;18952;52.516;13.460;2023-12-20T03:16:27;9.43;;;7.45;;
32501;SDS011;18952;52.516;13.460;2023-12-20T03:18:54;11.73;;;7.80;;
32501;SDS011;18952;52.516;13.460;2023-12-20T03:21:21;11.07;;;6.38;;
32501;SDS011;18952;52.516;13.460;2023-12-20T03:23:48;9.45;;;5.47;;
32501;SDS011;18952;52.516;13.460;2023-12-20T03:26:15;12.02;;;5.85;;
32501;SDS011;18952;52.516;13.460;2023-12-20T03:28:42;8.98;;;5.40;;
32501;SDS011;18952;52.516;13.460;2023-12-20T03:31:09;13.00;;;5.57;;
32501;SDS011;18952;52.516;13.460;2023-12-20T03:33:36;10.18;;;6.00;;
32501;SDS011;18952;52.516;13.460;2023-12-20T03:36:03;11.13;;;5.05;;
32501;SDS011;18952;52.516;13.460;2023-12-20T03:38:30;11.43;;;4.85;;
32501;SDS011;18952;52.516;13.460;2023-12-20T03:40:56;13.35;;;4.38;;
32501;SDS011;18952;52.516;13.460;2023-12-20T03:43:23;11.45;;;4.57;;
32501;SDS011;18952;52.516;13.460;2023-12-20T03:45:50;11.05;;;4.40;;
32501;SDS011;18952;52.516;13.460;2023-12-20T03:48:17;9.00;;;4.20;;
32501;SDS011;18952;52.516;13.460;2023-12-20T03:50:44;12.70;;;3.83;;
32501;SDS011;18952;52.516;13.460;2023-12-20T03:53:10;9.48;;;3.92;;
32501;SDS011;18952;52.516;13.460;2023-12-20T03:55:37;18.23;;;3.45;;
32501;SDS011;18952;52.516;13.460;2023-12-20T03:58:04;15.57;;;3.75;;
32501;SDS011;18952;52.516;13.460;2023-12-20T04:00:31;12.35;;;3.58;;
32501;SDS011;18952;52.516;13.460;2023-12-20T04:02:58;11.60;;;3.63;;
32501;SDS011;18952;52.516;13.460;2023-12-20T04:05:25;12.75;;;4.22;;
32501;SDS011;18952;52.516;13.460;2023-12-20T04:07:51;12.32;;;3.33;;
32501;SDS011;18952;52.516;13.460;2023-12-20T04:10:18;10.45;;;3.40;;
32501;SDS011;18952;52.516;13.460;2023-12-20T04:12:45;12.00;;;3.35;;
32501;SDS011;18952;52.516;13.460;2023-12-20T04:15:12;12.00;;;3.03;;
32501;SDS011;18952;52.516;13.460;2023-12-20T04:17:39;18.58;;;3.60;;
32501;SDS011;18952;52.516;13.460;2023-12-20T04:20:06;12.57;;;3.10;;
32501;SDS011;18952;52.516;13.460;2023-12-20T04:22:33;13.43;;;3.17;;
32501;SDS011;18952;52.516;13.460;2023-12-20T04:25:00;13.30;;;3.05;;
32501;SDS011;18952;52.516;13.460;2023-12-20T04:27:27;14.93;;;3.70;;
32501;SDS011;18952;52.516;13.460;2023-12-20T04:29:54;16.38;;;3.60;;
32501;SDS011;18952;52.516;13.460;2023-12-20T04:32:20;13.27;;;3.20;;
32501;SDS011;18952;52.516;13.460;2023-12-20T04:34:47;18.92;;;3.60;;
32501;SDS011;18952;52.516;13.460;2023-12-20T04:37:14;10.18;;;3.03;;
32501;SDS011;18952;52.516;13.460;2023-12-20T04:39:41;14.15;;;3.20;;
32501;SDS011;18952;52.516;13.460;2023-12-20T04:42:08;16.27;;;2.88;;
32501;SDS011;18952;52.516;13.460;2023-12-20T04:44:34;10.30;;;2.92;;
32501;SDS011;18952;52.516;13.460;2023-12-20T04:47:01;16.00;;;3.10;;
32501;SDS011;18952;52.516;13.460;2023-12-20T04:49:28;15.77;;;3.28;;
32501;SDS011;18952;52.516;13.460;2023-12-20T04:51:55;17.98;;;3.58;;
32501;SDS011;18952;52.516;13.460;2023-12-20T04:54:23;15.65;;;4.13;;
32501;SDS011;18952;52.516;13.460;2023-12-20T04:56:50;16.45;;;3.45;;
32501;SDS011;18952;52.516;13.460;2023-12-20T04:59:16;12.30;;;3.70;;
32501;SDS011;18952;52.516;13.460;2023-12-20T05:01:43;10.90;;;2.97;;
32501;SDS011;18952;52.516;13.460;2023-12-20T05:04:10;11.82;;;3.58;;
32501;SDS011;18952;52.516;13.460;2023-12-20T05:06:37;15.88;;;3.33;;
32501;SDS011;18952;52.516;13.460;2023-12-20T05:09:04;14.32;;;3.42;;
32501;SDS011;18952;52.516;13.460;2023-12-20T05:11:30;15.95;;;3.22;;
32501;SDS011;18952;52.516;13.460;2023-12-20T05:13:57;17.63;;;3.80;;
32501;SDS011;18952;52.516;13.460;2023-12-20T05:16:24;15.82;;;3.60;;
32501;SDS011;18952;52.516;13.460;2023-12-20T05:18:51;14.85;;;4.03;;
32501;SDS011;18952;52.516;13.460;2023-12-20T05:21:18;18.88;;;4.18;;
32501;SDS011;18952;52.516;13.460;2023-12-20T05:23:45;19.52;;;3.40;;
32501;SDS011;18952;52.516;13.460;2023-12-20T05:26:11;18.80;;;3.65;;
32501;SDS011;18952;52.516;13.460;2023-12-20T05:28:38;18.33;;;3.15;;
32501;SDS011;18952;52.516;13.460;2023-12-20T05:31:05;15.00;;;3.83;;
32501;SDS011;18952;52.516;13.460;2023-12-20T05:33:32;11.32;;;3.42;;
32501;SDS011;18952;52.516;13.460;2023-12-20T05:35:59;17.13;;;3.05;;
32501;SDS011;18952;52.516;13.460;2023-12-20T05:38:26;14.38;;;3.13;;
32501;SDS011;18952;52.516;13.460;2023-12-20T05:40:53;21.85;;;3.70;;
32501;SDS011;18952;52.516;13.460;2023-12-20T05:43:19;10.75;;;2.88;;
32501;SDS011;18952;52.516;13.460;2023-12-20T05:45:46;11.60;;;2.97;;
32501;SDS011;18952;52.516;13.460;2023-12-20T05:48:13;17.83;;;2.97;;
32501;SDS011;18952;52.516;13.460;2023-12-20T05:50:40;18.15;;;3.10;;
32501;SDS011;18952;52.516;13.460;2023-12-20T05:53:07;15.90;;;3.72;;
32501;SDS011;18952;52.516;13.460;2023-12-20T05:55:33;18.25;;;3.55;;
32501;SDS011;18952;52.516;13.460;2023-12-20T05:58:00;14.57;;;3.05;;
32501;SDS011;18952;52.516;13.460;2023-12-20T06:00:27;19.50;;;3.08;;
32501;SDS011;18952;52.516;13.460;2023-12-20T06:02:54;12.77;;;3.08;;
32501;SDS011;18952;52.516;13.460;2023-12-20T06:05:21;15.35;;;2.63;;
32501;SDS011;18952;52.516;13.460;2023-12-20T06:07:48;20.88;;;3.92;;
32501;SDS011;18952;52.516;13.460;2023-12-20T06:10:15;21.50;;;3.45;;
32501;SDS011;18952;52.516;13.460;2023-12-20T06:12:42;10.02;;;3.05;;
32501;SDS011;18952;52.516;13.460;2023-12-20T06:15:09;12.73;;;2.95;;
32501;SDS011;18952;52.516;13.460;2023-12-20T06:17:35;11.45;;;2.88;;
32501;SDS011;18952;52.516;13.460;2023-12-20T06:20:02;12.80;;;2.80;;
32501;SDS011;18952;52.516;13.460;2023-12-20T06:22:30;13.57;;;2.92;;
32501;SDS011;18952;52.516;13.460;2023-12-20T06:24:57;13.35;;;2.97;;
32501;SDS011;18952;52.516;13.460;2023-12-20T06:27:23;13.45;;;3.38;;
32501;SDS011;18952;52.516;13.460;2023-12-20T06:29:50;15.20;;;3.00;;
32501;SDS011;18952;52.516;13.460;2023-12-20T06:32:18;20.13;;;3.33;;
32501;SDS011;18952;52.516;13.460;2023-12-20T06:34:45;18.65;;;3.60;;
32501;SDS011;18952;52.516;13.460;2023-12-20T06:37:12;18.73;;;3.17;;
32501;SDS011;18952;52.516;13.460;2023-12-20T06:39:38;13.00;;;3.03;;
32501;SDS011;18952;52.516;13.460;2023-12-20T06:42:05;13.95;;;3.63;;
32501;SDS011;18952;52.516;13.460;2023-12-20T06:44:32;11.70;;;3.28;;
32501;SDS011;18952;52.516;13.460;2023-12-20T06:46:59;28.10;;;3.65;;
32501;SDS011;18952;52.516;13.460;2023-12-20T06:49:26;16.65;;;3.28;;
32501;SDS011;18952;52.516;13.460;2023-12-20T06:51:53;19.85;;;3.60;;
32501;SDS011;18952;52.516;13.460;2023-12-20T06:54:20;24.25;;;3.47;;
32501;SDS011;18952;52.516;13.460;2023-12-20T06:56:46;19.65;;;3.30;;
32501;SDS011;18952;52.516;13.460;2023-12-20T06:59:13;11.68;;;3.08;;
32501;SDS011;18952;52.516;13.460;2023-12-20T07:01:40;10.45;;;3.47;;
32501;SDS011;18952;52.516;13.460;2023-12-20T07:04:08;16.15;;;3.45;;
32501;SDS011;18952;52.516;13.460;2023-12-20T07:06:35;25.30;;;4.30;;
32501;SDS011;18952;52.516;13.460;2023-12-20T07:09:01;14.00;;;3.65;;
32501;SDS011;18952;52.516;13.460;2023-12-20T07:11:28;18.10;;;3.83;;
32501;SDS011;18952;52.516;13.460;2023-12-20T07:13:55;17.15;;;4.10;;
32501;SDS011;18952;52.516;13.460;2023-12-20T07:16:23;17.65;;;3.97;;
32501;SDS011;18952;52.516;13.460;2023-12-20T07:18:50;17.60;;;3.72;;
32501;SDS011;18952;52.516;13.460;2023-12-20T07:21:16;14.57;;;3.30;;
32501;SDS011;18952;52.516;13.460;2023-12-20T07:23:43;11.30;;;3.47;;
32501;SDS011;18952;52.516;13.460;2023-12-20T07:26:10;14.25;;;4.05;;
32501;SDS011;18952;52.516;13.460;2023-12-20T07:28:37;17.25;;;4.18;;
32501;SDS011;18952;52.516;13.460;2023-12-20T07:31:04;13.05;;;4.07;;
32501;SDS011;18952;52.516;13.460;2023-12-20T07:33:31;18.55;;;4.03;;
32501;SDS011;18952;52.516;13.460;2023-12-20T07:36:05;15.25;;;4.07;;
32501;SDS011;18952;52.516;13.460;2023-12-20T07:38:32;19.38;;;3.72;;
32501;SDS011;18952;52.516;13.460;2023-12-20T07:40:59;10.98;;;3.45;;
32501;SDS011;18952;52.516;13.460;2023-12-20T07:43:26;15.65;;;3.60;;
32501;SDS011;18952;52.516;13.460;2023-12-20T07:45:53;14.57;;;3.95;;
32501;SDS011;18952;52.516;13.460;2023-12-20T07:48:20;16.35;;;3.78;;
32501;SDS011;18952;52.516;13.460;2023-12-20T07:50:46;20.23;;;3.80;;
32501;SDS011;18952;52.516;13.460;2023-12-20T07:53:13;13.88;;;3.40;;
32501;SDS011;18952;52.516;13.460;2023-12-20T07:55:40;14.65;;;3.60;;
32501;SDS011;18952;52.516;13.460;2023-12-20T07:58:07;16.55;;;3.50;;
32501;SDS011;18952;52.516;13.460;2023-12-20T08:00:34;12.73;;;3.10;;
32501;SDS011;18952;52.516;13.460;2023-12-20T08:03:00;17.15;;;3.50;;
32501;SDS011;18952;52.516;13.460;2023-12-20T08:05:27;16.08;;;4.07;;
32501;SDS011;18952;52.516;13.460;2023-12-20T08:07:54;16.98;;;3.13;;
32501;SDS011;18952;52.516;13.460;2023-12-20T08:10:21;13.82;;;3.65;;
32501;SDS011;18952;52.516;13.460;2023-12-20T08:12:47;14.02;;;3.28;;
32501;SDS011;18952;52.516;13.460;2023-12-20T08:15:14;16.90;;;4.00;;
32501;SDS011;18952;52.516;13.460;2023-12-20T08:17:41;13.82;;;3.75;;
32501;SDS011;18952;52.516;13.460;2023-12-20T08:20:08;17.67;;;3.47;;
32501;SDS011;18952;52.516;13.460;2023-12-20T08:22:36;11.00;;;3.40;;
32501;SDS011;18952;52.516;13.460;2023-12-20T08:25:02;10.20;;;3.35;;
32501;SDS011;18952;52.516;13.460;2023-12-20T08:27:31;14.20;;;2.88;;
32501;SDS011;18952;52.516;13.460;2023-12-20T08:29:58;15.20;;;3.10;;
32501;SDS011;18952;52.516;13.460;2023-12-20T08:32:25;17.83;;;3.13;;
32501;SDS011;18952;52.516;13.460;2023-12-20T08:34:53;14.32;;;3.45;;
32501;SDS011;18952;52.516;13.460;2023-12-20T08:37:20;17.80;;;3.10;;
32501;SDS011;18952;52.516;13.460;2023-12-20T08:39:47;19.50;;;3.20;;
32501;SDS011;18952;52.516;13.460;2023-12-20T08:42:14;12.90;;;3.55;;
32501;SDS011;18952;52.516;13.460;2023-12-20T08:44:41;13.20;;;3.17;;
32501;SDS011;18952;52.516;13.460;2023-12-20T08:47:07;15.68;;;3.38;;
32501;SDS011;18952;52.516;13.460;2023-12-20T08:49:34;17.65;;;3.10;;
32501;SDS011;18952;52.516;13.460;2023-12-20T08:52:02;14.85;;;3.08;;
32501;SDS011;18952;52.516;13.460;2023-12-20T08:54:29;12.88;;;2.78;;
32501;SDS011;18952;52.516;13.460;2023-12-20T08:56:56;17.48;;;4.32;;
32501;SDS011;18952;52.516;13.460;2023-12-20T08:59:23;12.10;;;3.58;;
32501;SDS011;18952;52.516;13.460;2023-12-20T09:01:50;16.33;;;3.38;;
32501;SDS011;18952;52.516;13.460;2023-12-20T09:04:17;13.60;;;3.30;;
32501;SDS011;18952;52.516;13.460;2023-12-20T09:06:44;14.88;;;3.05;;
32501;SDS011;18952;52.516;13.460;2023-12-20T09:09:11;14.35;;;3.45;;
32501;SDS011;18952;52.516;13.460;2023-12-20T09:11:38;13.93;;;3.63;;
32501;SDS011;18952;52.516;13.460;2023-12-20T09:14:05;19.48;;;3.70;;
32501;SDS011;18952;52.516;13.460;2023-12-20T09:16:32;16.25;;;3.85;;
32501;SDS011;18952;52.516;13.460;2023-12-20T09:18:59;14.25;;;3.70;;
32501;SDS011;18952;52.516;13.460;2023-12-20T09:21:26;11.63;;;3.45;;
32501;SDS011;18952;52.516;13.460;2023-12-20T09:23:53;21.50;;;3.28;;
32501;SDS011;18952;52.516;13.460;2023-12-20T09:26:20;15.93;;;4.45;;
32501;SDS011;18952;52.516;13.460;2023-12-20T09:28:47;16.33;;;3.70;;
32501;SDS011;18952;52.516;13.460;2023-12-20T09:31:13;25.48;;;5.18;;
32501;SDS011;18952;52.516;13.460;2023-12-20T09:33:40;18.35;;;3.47;;
32501;SDS011;18952;52.516;13.460;2023-12-20T09:36:07;7.47;;;2.80;;
32501;SDS011;18952;52.516;13.460;2023-12-20T09:38:34;12.98;;;3.40;;
32501;SDS011;18952;52.516;13.460;2023-12-20T09:41:01;16.83;;;3.95;;
32501;SDS011;18952;52.516;13.460;2023-12-20T09:43:29;17.58;;;3.60;;
32501;SDS011;18952;52.516;13.460;2023-12-20T09:45:58;16.95;;;3.97;;
32501;SDS011;18952;52.516;13.460;2023-12-20T09:48:26;16.10;;;3.67;;
32501;SDS011;18952;52.516;13.460;2023-12-20T09:50:55;14.27;;;3.25;;
32501;SDS011;18952;52.516;13.460;2023-12-20T09:53:24;9.43;;;3.25;;
32501;SDS011;18952;52.516;13.460;2023-12-20T09:56:02;17.20;;;3.75;;
32501;SDS011;18952;52.516;13.460;2023-12-20T09:58:38;11.82;;;3.85;;
32501;SDS011;18952;52.516;13.460;2023-12-20T10:01:05;14.52;;;3.55;;
32501;SDS011;18952;52.516;13.460;2023-12-20T10:03:33;12.35;;;3.83;;
32501;SDS011;18952;52.516;13.460;2023-12-20T10:06:13;22.15;;;4.13;;
32501;SDS011;18952;52.516;13.460;2023-12-20T10:08:45;19.92;;;4.03;;
32501;SDS011;18952;52.516;13.460;2023-12-20T10:11:24;12.02;;;3.42;;
32501;SDS011;18952;52.516;13.460;2023-12-20T10:13:51;17.70;;;3.80;;
32501;SDS011;18952;52.516;13.460;2023-12-20T10:16:39;18.10;;;4.32;;
32501;SDS011;18952;52.516;13.460;2023-12-20T10:19:07;18.25;;;3.80;;
32501;SDS011;18952;52.516;13.460;2023-12-20T10:21:35;14.43;;;3.85;;
32501;SDS011;18952;52.516;13.460;2023-12-20T10:24:02;20.58;;;4.00;;
32501;SDS011;18952;52.516;13.460;2023-12-20T10:26:33;13.23;;;3.55;;
32501;SDS011;18952;52.516;13.460;2023-12-20T10:29:00;13.05;;;3.80;;
32501;SDS011;18952;52.516;13.460;2023-12-20T10:31:34;18.67;;;4.00;;
32501;SDS011;18952;52.516;13.460;2023-12-20T10:34:06;16.25;;;3.90;;
32501;SDS011;18952;52.516;13.460;2023-12-20T10:36:38;12.50;;;3.58;;
32501;SDS011;18952;52.516;13.460;2023-12-20T10:39:09;16.35;;;3.80;;
32501;SDS011;18952;52.516;13.460;2023-12-20T10:41:39;18.70;;;4.10;;
32501;SDS011;18952;52.516;13.460;2023-12-20T10:44:07;20.73;;;3.92;;
32501;SDS011;18952;52.516;13.460;2023-12-20T10:46:37;18.25;;;4.30;;
32501;SDS011;18952;52.516;13.460;2023-12-20T10:49:06;26.80;;;4.60;;
32501;SDS011;18952;52.516;13.460;2023-12-20T10:51:34;23.27;;;4.03;;
32501;SDS011;18952;52.516;13.460;2023-12-20T10:54:02;16.27;;;4.22;;
32501;SDS011;18952;52.516;13.460;2023-12-20T10:56:31;17.73;;;4.65;;
32501;SDS011;18952;52.516;13.460;2023-12-20T10:58:58;12.77;;;3.65;;
32501;SDS011;18952;52.516;13.460;2023-12-20T11:01:28;16.90;;;3.60;;
32501;SDS011;18952;52.516;13.460;2023-12-20T11:03:56;14.57;;;4.10;;
32501;SDS011;18952;52.516;13.460;2023-12-20T11:09:24;20.58;;;4.43;;
32501;SDS011;18952;52.516;13.460;2023-12-20T11:14:46;15.18;;;4.03;;
32501;SDS011;18952;52.516;13.460;2023-12-20T11:17:20;17.95;;;3.88;;
32501;SDS011;18952;52.516;13.460;2023-12-20T11:22:24;20.83;;;4.15;;
32501;SDS011;18952;52.516;13.460;2023-12-20T11:24:52;16.70;;;4.55;;
32501;SDS011;18952;52.516;13.460;2023-12-20T11:27:19;15.35;;;4.03;;
32501;SDS011;18952;52.516;13.460;2023-12-20T11:29:53;14.95;;;4.38;;
32501;SDS011;18952;52.516;13.460;2023-12-20T11:34:53;13.63;;;4.35;;
32501;SDS011;18952;52.516;13.460;2023-12-20T11:37:21;17.98;;;4.40;;
32501;SDS011;18952;52.516;13.460;2023-12-20T11:39:55;20.92;;;5.00;;
32501;SDS011;18952;52.516;13.460;2023-12-20T11:42:22;14.90;;;3.95;;
32501;SDS011;18952;52.516;13.460;2023-12-20T11:44:48;20.55;;;4.55;;
32501;SDS011;18952;52.516;13.460;2023-12-20T11:47:16;18.33;;;4.97;;
32501;SDS011;18952;52.516;13.460;2023-12-20T11:49:44;19.63;;;4.88;;
32501;SDS011;18952;52.516;13.460;2023-12-20T11:52:13;20.50;;;4.60;;
32501;SDS011;18952;52.516;13.460;2023-12-20T11:54:40;15.52;;;4.45;;
32501;SDS011;18952;52.516;13.460;2023-12-20T11:57:06;16.52;;;4.72;;
32501;SDS011;18952;52.516;13.460;2023-12-20T11:59:33;16.42;;;4.25;;
32501;SDS011;18952;52.516;13.460;2023-12-20T12:02:00;14.48;;;4.30;;
32501;SDS011;18952;52.516;13.460;2023-12-20T12:04:28;19.65;;;4.72;;
32501;SDS011;18952;52.516;13.460;2023-12-20T12:06:55;13.65;;;4.82;;
32501;SDS011;18952;52.516;13.460;2023-12-20T12:09:22;23.67;;;5.03;;
32501;SDS011;18952;52.516;13.460;2023-12-20T12:11:48;15.30;;;4.40;;
32501;SDS011;18952;52.516;13.460;2023-12-20T12:14:15;13.57;;;3.65;;
32501;SDS011;18952;52.516;13.460;2023-12-20T12:21:19;13.23;;;4.50;;
32501;SDS011;18952;52.516;13.460;2023-12-20T12:23:48;27.40;;;4.38;;
32501;SDS011;18952;52.516;13.460;2023-12-20T12:26:15;14.48;;;4.20;;
32501;SDS011;18952;52.516;13.460;2023-12-20T12:28:42;15.23;;;4.30;;
32501;SDS011;18952;52.516;13.460;2023-12-20T12:31:13;13.70;;;4.53;;
32501;SDS011;18952;52.516;13.460;2023-12-20T12:33:40;14.23;;;4.27;;
32501;SDS011;18952;52.516;13.460;2023-12-20T12:36:08;12.15;;;4.28;;
32501;SDS011;18952;52.516;13.460;2023-12-20T12:38:34;16.40;;;4.55;;
32501;SDS011;18952;52.516;13.460;2023-12-20T12:41:01;14.57;;;4.65;;
32501;SDS011;18952;52.516;13.460;2023-12-20T12:43:28;15.30;;;4.47;;
32501;SDS011;18952;52.516;13.460;2023-12-20T12:45:55;14.25;;;4.15;;
32501;SDS011;18952;52.516;13.460;2023-12-20T12:48:23;17.85;;;4.30;;
32501;SDS011;18952;52.516;13.460;2023-12-20T12:50:50;11.88;;;4.35;;
32501;SDS011;18952;52.516;13.460;2023-12-20T12:53:17;16.75;;;4.88;;
32501;SDS011;18952;52.516;13.460;2023-12-20T12:55:44;15.23;;;4.68;;
32501;SDS011;18952;52.516;13.460;2023-12-20T12:58:11;17.35;;;4.80;;
32501;SDS011;18952;52.516;13.460;2023-12-20T13:00:39;14.10;;;4.53;;
32501;SDS011;18952;52.516;13.460;2023-12-20T13:03:05;15.07;;;4.40;;
32501;SDS011;18952;52.516;13.460;2023-12-20T13:05:32;14.82;;;4.72;;
32501;SDS011;18952;52.516;13.460;2023-12-20T13:08:05;14.50;;;4.50;;
32501;SDS011;18952;52.516;13.460;2023-12-20T13:10:32;13.93;;;4.63;;
32501;SDS011;18952;52.516;13.460;2023-12-20T13:12:59;14.73;;;4.85;;
32501;SDS011;18952;52.516;13.460;2023-12-20T13:15:26;14.25;;;4.78;;
32501;SDS011;18952;52.516;13.460;2023-12-20T13:17:53;21.52;;;5.78;;
32501;SDS011;18952;52.516;13.460;2023-12-20T13:20:20;14.98;;;4.75;;
32501;SDS011;18952;52.516;13.460;2023-12-20T13:22:47;13.13;;;4.83;;
32501;SDS011;18952;52.516;13.460;2023-12-20T13:25:14;10.23;;;3.95;;
32501;SDS011;18952;52.516;13.460;2023-12-20T13:27:41;17.15;;;4.40;;
32501;SDS011;18952;52.516;13.460;2023-12-20T13:30:09;7.97;;;2.83;;
32501;SDS011;18952;52.516;13.460;2023-12-20T13:32:36;5.45;;;2.05;;
32501;SDS011;18952;52.516;13.460;2023-12-20T13:35:04;6.63;;;1.80;;
32501;SDS011;18952;52.516;13.460;2023-12-20T13:37:31;7.13;;;1.80;;
32501;SDS011;18952;52.516;13.460;2023-12-20T13:39:58;3.20;;;1.63;;
32501;SDS011;18952;52.516;13.460;2023-12-20T13:42:25;3.78;;;1.38;;
32501;SDS011;18952;52.516;13.460;2023-12-20T13:44:52;4.75;;;1.42;;
32501;SDS011;18952;52.516;13.460;2023-12-20T13:47:20;3.72;;;1.38;;
32501;SDS011;18952;52.516;13.460;2023-12-20T13:49:50;3.67;;;1.70;;
32501;SDS011;18952;52.516;13.460;2023-12-20T13:52:17;4.40;;;1.40;;
32501;SDS011;18952;52.516;13.460;2023-12-20T13:54:45;6.88;;;1.40;;
32501;SDS011;18952;52.516;13.460;2023-12-20T13:57:12;2.78;;;1.30;;
32501;SDS011;18952;52.516;13.460;2023-12-20T13:59:57;3.65;;;1.35;;
32501;SDS011;18952;52.516;13.460;2023-12-20T14:02:23;2.92;;;1.20;;
32501;SDS011;18952;52.516;13.460;2023-12-20T14:04:50;3.27;;;1.23;;
32501;SDS011;18952;52.516;13.460;2023-12-20T14:07:17;8.48;;;1.50;;
32501;SDS011;18952;52.516;13.460;2023-12-20T14:09:44;4.13;;;1.65;;
32501;SDS011;18952;52.516;13.460;2023-12-20T14:12:12;6.15;;;1.60;;
32501;SDS011;18952;52.516;13.460;2023-12-20T14:14:40;5.38;;;1.70;;
32501;SDS011;18952;52.516;13.460;2023-12-20T14:17:07;3.45;;;1.30;;
32501;SDS011;18952;52.516;13.460;2023-12-20T14:19:34;4.88;;;1.63;;
32501;SDS011;18952;52.516;13.460;2023-12-20T14:22:01;4.57;;;1.50;;
32501;SDS011;18952;52.516;13.460;2023-12-20T14:24:28;2.47;;;1.13;;
32501;SDS011;18952;52.516;13.460;2023-12-20T14:26:55;2.53;;;1.27;;
32501;SDS011;18952;52.516;13.460;2023-12-20T14:29:23;3.03;;;1.10;;
32501;SDS011;18952;52.516;13.460;2023-12-20T14:31:53;3.58;;;1.20;;
32501;SDS011;18952;52.516;13.460;2023-12-20T14:34:20;2.85;;;0.85;;
32501;SDS011;18952;52.516;13.460;2023-12-20T14:36:47;4.13;;;1.00;;